Time;durP1;ratioP1;P1;durP2;ratioP2;P2;SDS_P1;SDS_P2;PMS_P1;PMS_P2;Temp;Humidity;BMP_temperature;BMP_pressure;BME280_temperature;BME280_humidity;BME280_pressure;Samples;Min_cycle;Max_cycle;Signal;HPM_P1;HPM_P2
2022/12/30 00:02:00;;;;;;;40.50;4.75;;;;;;;;;;5069973;28;20103;-79
2022/12/30 00:04:26;;;;;;;34.75;4.90;;;;;;;;;;5071158;28;20039;-78
2022/12/30 00:06:51;;;;;;;37.85;4.15;;;;;;;;;;5067075;28;20040;-80
2022/12/30 00:09:18;;;;;;;33.03;3.35;;;;;;;;;;5062392;28;20370;-79
2022/12/30 00:11:44;;;;;;;26.02;4.13;;;;;;;;;;5069618;28;20123;-78
2022/12/30 00:33:47;;;;;;;28.33;4.00;;;;;;;;;;5069971;28;20055;-78
2022/12/30 00:36:13;;;;;;;26.38;4.15;;;;;;;;;;5073474;28;20488;-78
2022/12/30 00:38:39;;;;;;;25.10;3.88;;;;;;;;;;5070727;28;20081;-77
2022/12/30 00:43:50;;;;;;;25.00;3.60;;;;;;;;;;5059676;28;20491;-79
2022/12/30 00:46:18;;;;;;;26.15;3.50;;;;;;;;;;5074540;28;20493;-78
2022/12/30 00:56:59;;;;;;;23.77;2.90;;;;;;;;;;5065958;28;20129;-80
2022/12/30 00:59:25;;;;;;;22.92;3.38;;;;;;;;;;5063588;28;20033;-78
2022/12/30 01:01:51;;;;;;;24.90;4.40;;;;;;;;;;5074588;28;20484;-79
2022/12/30 01:04:17;;;;;;;28.42;4.10;;;;;;;;;;5049893;28;20050;-78
2022/12/30 01:06:43;;;;;;;26.50;3.90;;;;;;;;;;5057161;28;20481;-78
2022/12/30 01:09:09;;;;;;;25.55;4.32;;;;;;;;;;5069129;28;20032;-78
2022/12/30 01:11:35;;;;;;;19.13;3.65;;;;;;;;;;5070666;28;20442;-78
2022/12/30 01:14:01;;;;;;;17.20;2.90;;;;;;;;;;5051648;28;20077;-79
2022/12/30 01:16:27;;;;;;;23.38;3.25;;;;;;;;;;5042224;28;20090;-77
2022/12/30 01:18:53;;;;;;;27.90;5.60;;;;;;;;;;5070350;28;20074;-78
2022/12/30 01:21:19;;;;;;;32.05;5.53;;;;;;;;;;5054927;28;20036;-78
2022/12/30 01:23:45;;;;;;;28.02;3.83;;;;;;;;;;5053419;28;20024;-78
2022/12/30 01:26:11;;;;;;;30.58;4.22;;;;;;;;;;5070632;28;20060;-78
2022/12/30 01:28:38;;;;;;;27.52;3.95;;;;;;;;;;5072977;28;20036;-78
2022/12/30 01:31:05;;;;;;;27.73;3.72;;;;;;;;;;5063198;28;20040;-77
2022/12/30 01:33:31;;;;;;;23.95;3.80;;;;;;;;;;5069981;28;20465;-78
2022/12/30 01:35:57;;;;;;;20.85;3.22;;;;;;;;;;5068458;28;20033;-79
2022/12/30 01:38:23;;;;;;;26.70;3.75;;;;;;;;;;5071490;28;20039;-77
2022/12/30 01:40:49;;;;;;;33.22;4.47;;;;;;;;;;5066969;28;20647;-77
2022/12/30 01:43:17;;;;;;;28.60;3.85;;;;;;;;;;5074632;28;20086;-78
2022/12/30 01:45:47;;;;;;;24.90;4.82;;;;;;;;;;5066885;28;20025;-77
2022/12/30 01:48:19;;;;;;;27.10;4.75;;;;;;;;;;5067579;28;20027;-77
2022/12/30 01:50:49;;;;;;;23.90;3.78;;;;;;;;;;5068340;28;20078;-77
2022/12/30 01:53:34;;;;;;;24.50;2.80;;;;;;;;;;5073791;28;20108;-78
2022/12/30 01:56:03;;;;;;;20.20;4.45;;;;;;;;;;5064290;28;20025;-79
2022/12/30 01:58:31;;;;;;;32.30;5.50;;;;;;;;;;5069835;28;20025;-77
2022/12/30 02:00:57;;;;;;;24.67;3.15;;;;;;;;;;5067284;28;20119;-78
2022/12/30 02:03:24;;;;;;;20.60;3.45;;;;;;;;;;5066482;28;20120;-77
2022/12/30 02:05:50;;;;;;;28.75;3.40;;;;;;;;;;5051316;28;20036;-78
2022/12/30 02:08:21;;;;;;;27.88;4.43;;;;;;;;;;5072916;28;20039;-78
2022/12/30 02:10:48;;;;;;;24.75;3.55;;;;;;;;;;5051128;28;20040;-78
2022/12/30 02:13:15;;;;;;;24.08;3.15;;;;;;;;;;5063628;28;20057;-78
2022/12/30 02:15:57;;;;;;;24.88;5.82;;;;;;;;;;5051840;28;20468;-77
2022/12/30 02:18:32;;;;;;;19.73;3.83;;;;;;;;;;5063023;28;20385;-77
2022/12/30 02:21:19;;;;;;;33.47;4.05;;;;;;;;;;5075013;28;20036;-79
2022/12/30 02:23:48;;;;;;;32.45;4.07;;;;;;;;;;5060126;28;20020;-77
2022/12/30 02:26:20;;;;;;;25.92;3.97;;;;;;;;;;5071381;28;20043;-77
2022/12/30 02:29:07;;;;;;;22.92;3.53;;;;;;;;;;5065163;28;20047;-78
2022/12/30 02:31:39;;;;;;;26.20;4.35;;;;;;;;;;5066274;28;20111;-76
2022/12/30 02:34:43;;;;;;;26.17;3.70;;;;;;;;;;5062584;28;20096;-77
2022/12/30 02:37:12;;;;;;;27.23;4.15;;;;;;;;;;5034777;28;20038;-77
2022/12/30 02:39:49;;;;;;;23.00;3.03;;;;;;;;;;5028209;28;20048;-77
2022/12/30 02:45:08;;;;;;;;;;;;;;;;;;5068721;28;20032;-77
2022/12/30 02:47:39;;;;;;;27.83;3.45;;;;;;;;;;5063210;28;19912;-77
2022/12/30 02:52:52;;;;;;;22.50;3.33;;;;;;;;;;5068254;28;20039;-77
2022/12/30 02:55:19;;;;;;;26.20;3.03;;;;;;;;;;5068088;28;20074;-77
2022/12/30 02:57:45;;;;;;;35.47;5.32;;;;;;;;;;5072887;28;20028;-77
2022/12/30 03:06:37;;;;;;;24.88;4.88;;;;;;;;;;4925641;28;20036;-78
2022/12/30 03:09:20;;;;;;;30.65;3.58;;;;;;;;;;4974306;28;20045;-79
2022/12/30 03:12:04;;;;;;;26.90;3.60;;;;;;;;;;5028163;28;20052;-78
2022/12/30 03:14:49;;;;;;;26.15;4.18;;;;;;;;;;5067289;28;20093;-77
2022/12/30 03:17:20;;;;;;;33.97;3.28;;;;;;;;;;5067375;28;20111;-77
2022/12/30 03:19:49;;;;;;;26.83;4.13;;;;;;;;;;5066010;28;20025;-77
2022/12/30 03:27:49;;;;;;;24.77;4.03;;;;;;;;;;5077484;28;20047;-78
2022/12/30 03:30:15;;;;;;;37.28;5.63;;;;;;;;;;5073687;28;20033;-78
2022/12/30 03:32:41;;;;;;;23.38;3.80;;;;;;;;;;5077360;28;20028;-78
2022/12/30 03:35:07;;;;;;;23.38;3.25;;;;;;;;;;5066730;28;20036;-78
2022/12/30 03:37:37;;;;;;;19.48;3.70;;;;;;;;;;5073264;28;20758;-77
2022/12/30 03:40:16;;;;;;;27.77;3.40;;;;;;;;;;5062128;28;20469;-78
2022/12/30 03:42:42;;;;;;;34.22;4.22;;;;;;;;;;5072638;28;20017;-77
2022/12/30 03:45:09;;;;;;;28.02;3.78;;;;;;;;;;5067251;28;20039;-78
2022/12/30 03:47:35;;;;;;;36.92;3.85;;;;;;;;;;5079580;28;20474;-76
2022/12/30 03:50:01;;;;;;;27.90;3.80;;;;;;;;;;5067349;28;20036;-77
2022/12/30 03:52:27;;;;;;;19.65;3.97;;;;;;;;;;5063600;28;20060;-77
2022/12/30 03:54:53;;;;;;;33.65;4.05;;;;;;;;;;5068381;28;20032;-77
2022/12/30 03:57:19;;;;;;;25.38;4.53;;;;;;;;;;5055113;28;20044;-77
2022/12/30 03:59:46;;;;;;;21.20;4.00;;;;;;;;;;5068719;28;20474;-77
2022/12/30 04:02:12;;;;;;;30.02;4.45;;;;;;;;;;5066604;28;20028;-77
2022/12/30 04:04:38;;;;;;;20.27;3.88;;;;;;;;;;5059199;28;20224;-78
2022/12/30 04:07:04;;;;;;;28.80;3.80;;;;;;;;;;5073962;28;20103;-78
2022/12/30 04:09:30;;;;;;;26.65;5.13;;;;;;;;;;5067560;28;20095;-78
2022/12/30 04:11:56;;;;;;;26.23;5.35;;;;;;;;;;5073228;28;20526;-79
2022/12/30 04:14:22;;;;;;;24.65;4.25;;;;;;;;;;5073318;28;20162;-77
2022/12/30 04:16:48;;;;;;;27.50;5.03;;;;;;;;;;5071306;28;20051;-78
2022/12/30 04:19:14;;;;;;;24.73;3.67;;;;;;;;;;5071445;28;20037;-77
2022/12/30 04:21:40;;;;;;;29.90;4.60;;;;;;;;;;5069612;28;20551;-77
2022/12/30 04:24:06;;;;;;;31.77;4.32;;;;;;;;;;5056168;28;20734;-77
2022/12/30 04:26:32;;;;;;;30.25;4.30;;;;;;;;;;5075840;28;20052;-77
2022/12/30 04:28:58;;;;;;;19.30;5.32;;;;;;;;;;5069187;28;20036;-78
2022/12/30 04:31:24;;;;;;;21.27;3.60;;;;;;;;;;5067017;28;20028;-77
2022/12/30 04:33:51;;;;;;;30.70;4.00;;;;;;;;;;5062702;28;20044;-77
2022/12/30 04:36:18;;;;;;;26.05;4.55;;;;;;;;;;5052213;28;20035;-76
2022/12/30 04:38:44;;;;;;;32.95;3.90;;;;;;;;;;5069715;28;20020;-78
2022/12/30 04:41:10;;;;;;;16.13;2.97;;;;;;;;;;5071897;28;20028;-77
2022/12/30 04:43:37;;;;;;;24.13;3.35;;;;;;;;;;5072033;28;20597;-77
2022/12/30 04:46:03;;;;;;;24.30;3.60;;;;;;;;;;5069389;28;20031;-77
2022/12/30 04:48:29;;;;;;;27.88;5.38;;;;;;;;;;5049239;28;20056;-78
2022/12/30 04:50:55;;;;;;;29.02;3.90;;;;;;;;;;5051253;28;20059;-78
2022/12/30 04:53:21;;;;;;;28.05;3.72;;;;;;;;;;5063161;28;20036;-78
2022/12/30 04:55:51;;;;;;;20.35;2.75;;;;;;;;;;5075445;28;20024;-78
2022/12/30 04:58:18;;;;;;;18.77;3.42;;;;;;;;;;5072651;28;20111;-78
2022/12/30 05:00:44;;;;;;;20.85;2.80;;;;;;;;;;5063957;28;20049;-78
2022/12/30 05:03:10;;;;;;;22.25;2.88;;;;;;;;;;5064439;28;20028;-79
2022/12/30 05:05:36;;;;;;;19.45;2.42;;;;;;;;;;5061734;28;20025;-77
2022/12/30 05:08:02;;;;;;;17.38;3.08;;;;;;;;;;5061104;28;20094;-81
2022/12/30 05:10:28;;;;;;;22.40;3.22;;;;;;;;;;5059564;28;20048;-79
2022/12/30 05:12:54;;;;;;;20.38;3.30;;;;;;;;;;5061252;28;20044;-80
2022/12/30 05:15:20;;;;;;;19.83;3.47;;;;;;;;;;5060869;28;20037;-77
2022/12/30 05:17:46;;;;;;;25.90;3.38;;;;;;;;;;5067104;28;20044;-77
2022/12/30 05:20:13;;;;;;;22.05;2.67;;;;;;;;;;5061906;28;20032;-77
2022/12/30 05:22:39;;;;;;;31.27;8.18;;;;;;;;;;5048394;28;20392;-81
2022/12/30 05:27:50;;;;;;;27.23;3.85;;;;;;;;;;5074075;28;20121;-84
2022/12/30 05:30:17;;;;;;;16.27;5.10;;;;;;;;;;5069272;28;20036;-81
2022/12/30 05:32:43;;;;;;;23.50;3.92;;;;;;;;;;5068335;28;20109;-79
2022/12/30 05:35:09;;;;;;;27.20;4.40;;;;;;;;;;5058877;28;20032;-79
2022/12/30 05:37:35;;;;;;;22.67;3.60;;;;;;;;;;5067738;28;20397;-78
2022/12/30 05:40:01;;;;;;;15.15;4.20;;;;;;;;;;5067795;28;20025;-77
2022/12/30 05:42:27;;;;;;;22.20;3.78;;;;;;;;;;5065468;28;20024;-76
2022/12/30 05:44:53;;;;;;;17.02;3.08;;;;;;;;;;5063695;28;20029;-76
2022/12/30 05:47:19;;;;;;;29.95;4.13;;;;;;;;;;5064634;28;20074;-76
2022/12/30 05:49:45;;;;;;;21.33;3.83;;;;;;;;;;5047319;28;20060;-75
2022/12/30 05:52:11;;;;;;;22.88;4.85;;;;;;;;;;5062859;28;20040;-76
2022/12/30 05:54:37;;;;;;;26.42;5.68;;;;;;;;;;5047851;28;20059;-76
2022/12/30 05:57:03;;;;;;;25.05;4.68;;;;;;;;;;5062717;28;20047;-74
2022/12/30 05:59:29;;;;;;;102.40;48.25;;;;;;;;;;5045969;28;20382;-81
2022/12/30 06:01:55;;;;;;;27.80;5.88;;;;;;;;;;5063565;28;20113;-80
2022/12/30 06:04:21;;;;;;;43.20;19.20;;;;;;;;;;5059674;28;20141;-79
2022/12/30 06:06:48;;;;;;;18.92;3.80;;;;;;;;;;5058215;28;20374;-81
2022/12/30 06:09:14;;;;;;;21.95;4.30;;;;;;;;;;5060528;28;20031;-79
2022/12/30 06:11:40;;;;;;;24.83;5.97;;;;;;;;;;5064009;28;20037;-80
2022/12/30 06:14:06;;;;;;;22.65;4.68;;;;;;;;;;5043826;28;20052;-77
2022/12/30 06:16:32;;;;;;;26.58;4.82;;;;;;;;;;5062539;28;20469;-79
2022/12/30 06:18:58;;;;;;;26.88;4.10;;;;;;;;;;5059943;28;20093;-83
2022/12/30 06:21:24;;;;;;;23.58;4.97;;;;;;;;;;5057113;28;20486;-78
2022/12/30 06:23:50;;;;;;;24.38;3.78;;;;;;;;;;5069556;28;20437;-77
2022/12/30 06:26:16;;;;;;;17.60;4.55;;;;;;;;;;5069651;28;20029;-78
2022/12/30 06:28:42;;;;;;;16.40;4.32;;;;;;;;;;5069847;28;20068;-79
2022/12/30 06:31:08;;;;;;;19.05;3.70;;;;;;;;;;5067814;28;20036;-80
2022/12/30 06:33:34;;;;;;;18.27;5.72;;;;;;;;;;5071480;28;20029;-80
2022/12/30 06:36:00;;;;;;;22.42;4.68;;;;;;;;;;5070047;28;20013;-81
2022/12/30 06:38:26;;;;;;;30.48;5.90;;;;;;;;;;5053014;28;20443;-80
2022/12/30 06:40:52;;;;;;;22.75;5.53;;;;;;;;;;5057083;28;20044;-80
2022/12/30 06:43:18;;;;;;;14.05;3.95;;;;;;;;;;5058546;28;20024;-77
2022/12/30 06:45:45;;;;;;;25.40;5.00;;;;;;;;;;5070962;28;20031;-80
2022/12/30 06:48:11;;;;;;;14.15;4.85;;;;;;;;;;5073019;28;20040;-82
2022/12/30 06:50:37;;;;;;;26.48;4.53;;;;;;;;;;5065981;28;20036;-79
2022/12/30 06:53:04;;;;;;;27.25;11.07;;;;;;;;;;5062199;28;20032;-79
2022/12/30 06:55:30;;;;;;;143.70;71.47;;;;;;;;;;5065900;28;20440;-80
2022/12/30 06:57:56;;;;;;;23.98;5.30;;;;;;;;;;5069220;28;20039;-79
2022/12/30 07:00:22;;;;;;;18.90;3.70;;;;;;;;;;5062685;28;20041;-77
2022/12/30 07:02:48;;;;;;;25.95;4.35;;;;;;;;;;5069040;28;20031;-77
2022/12/30 07:05:14;;;;;;;15.88;3.22;;;;;;;;;;5069621;28;20045;-79
2022/12/30 07:07:40;;;;;;;21.48;3.53;;;;;;;;;;5071309;28;20114;-81
2022/12/30 07:10:07;;;;;;;15.48;3.55;;;;;;;;;;5070908;28;20849;-79
2022/12/30 07:12:33;;;;;;;26.23;4.70;;;;;;;;;;5049372;28;20385;-81
2022/12/30 07:14:59;;;;;;;21.92;3.47;;;;;;;;;;5046133;28;20107;-81
2022/12/30 07:17:25;;;;;;;16.30;3.53;;;;;;;;;;5049038;28;20037;-79
2022/12/30 07:19:51;;;;;;;18.75;3.60;;;;;;;;;;5041935;28;20418;-81
2022/12/30 07:22:17;;;;;;;20.60;4.30;;;;;;;;;;5044553;28;20490;-80
2022/12/30 07:24:44;;;;;;;23.25;3.58;;;;;;;;;;5041111;28;20471;-80
2022/12/30 07:27:11;;;;;;;17.40;3.42;;;;;;;;;;5040902;28;20021;-80
2022/12/30 07:29:38;;;;;;;16.95;3.38;;;;;;;;;;5045876;28;20037;-78
2022/12/30 07:32:04;;;;;;;21.35;4.18;;;;;;;;;;5043778;28;20496;-81
2022/12/30 07:34:30;;;;;;;25.73;3.58;;;;;;;;;;5046572;28;20040;-82
2022/12/30 07:36:56;;;;;;;15.40;3.45;;;;;;;;;;5043177;28;20017;-82
2022/12/30 07:39:22;;;;;;;19.00;3.10;;;;;;;;;;5043574;28;20033;-79
2022/12/30 07:41:48;;;;;;;22.27;4.13;;;;;;;;;;5039696;28;20037;-79
2022/12/30 07:44:14;;;;;;;14.68;3.42;;;;;;;;;;5047008;28;20041;-78
2022/12/30 07:46:40;;;;;;;23.52;3.33;;;;;;;;;;5044127;28;20033;-79
2022/12/30 07:49:06;;;;;;;15.10;3.17;;;;;;;;;;5042862;28;20064;-77
2022/12/30 07:51:32;;;;;;;31.23;3.67;;;;;;;;;;5042510;28;20481;-78
2022/12/30 07:53:59;;;;;;;23.80;3.20;;;;;;;;;;5040681;28;20091;-79
2022/12/30 07:56:25;;;;;;;19.98;3.75;;;;;;;;;;5041730;28;20482;-78
2022/12/30 07:58:53;;;;;;;20.02;3.55;;;;;;;;;;5044672;28;20029;-78
2022/12/30 08:01:20;;;;;;;21.48;3.30;;;;;;;;;;5036736;28;20041;-79
2022/12/30 08:03:46;;;;;;;35.67;7.00;;;;;;;;;;5040678;28;20025;-78
2022/12/30 08:06:13;;;;;;;18.08;3.45;;;;;;;;;;5045068;28;20079;-80
2022/12/30 08:08:40;;;;;;;12.85;3.05;;;;;;;;;;5044675;28;20512;-82
2022/12/30 08:11:07;;;;;;;14.27;2.88;;;;;;;;;;5041269;28;20158;-76
2022/12/30 08:13:34;;;;;;;22.38;3.88;;;;;;;;;;5050261;28;22181;-80
2022/12/30 08:16:04;;;;;;;18.27;3.45;;;;;;;;;;5058863;28;20377;-83
2022/12/30 08:18:31;;;;;;;26.45;4.97;;;;;;;;;;5062274;28;20020;-77
2022/12/30 08:21:04;;;;;;;19.92;3.03;;;;;;;;;;5059082;28;20040;-81
2022/12/30 08:23:31;;;;;;;20.00;3.70;;;;;;;;;;5062311;28;20021;-79
2022/12/30 08:25:57;;;;;;;20.15;4.35;;;;;;;;;;5063816;28;20504;-78
2022/12/30 08:28:23;;;;;;;21.52;3.40;;;;;;;;;;5062086;28;20029;-77
2022/12/30 08:30:49;;;;;;;20.35;3.58;;;;;;;;;;5062583;28;20024;-77
2022/12/30 08:33:15;;;;;;;21.42;4.13;;;;;;;;;;5046778;28;20039;-79
2022/12/30 08:35:42;;;;;;;33.22;4.28;;;;;;;;;;5064952;28;20461;-80
2022/12/30 08:38:09;;;;;;;22.60;3.50;;;;;;;;;;5058672;28;20033;-78
2022/12/30 08:40:35;;;;;;;19.33;2.78;;;;;;;;;;5061746;28;20047;-77
2022/12/30 08:43:01;;;;;;;11.40;2.63;;;;;;;;;;5065840;28;20135;-80
2022/12/30 08:45:27;;;;;;;15.73;4.13;;;;;;;;;;5054393;28;20152;-77
2022/12/30 08:47:53;;;;;;;27.20;5.07;;;;;;;;;;5062718;28;21154;-79
2022/12/30 08:50:19;;;;;;;18.58;4.07;;;;;;;;;;5040404;28;20048;-80
2022/12/30 08:52:45;;;;;;;30.27;13.30;;;;;;;;;;5061783;28;20032;-81
2022/12/30 08:55:12;;;;;;;21.42;4.55;;;;;;;;;;5027187;28;20086;-78
2022/12/30 08:57:38;;;;;;;20.58;2.83;;;;;;;;;;5058102;28;20071;-80
2022/12/30 09:00:05;;;;;;;21.15;4.25;;;;;;;;;;5059698;28;20091;-78
2022/12/30 09:02:31;;;;;;;22.50;3.28;;;;;;;;;;5060530;28;20067;-79
2022/12/30 09:04:57;;;;;;;16.42;2.60;;;;;;;;;;5055329;28;20361;-80
2022/12/30 09:07:23;;;;;;;14.80;3.17;;;;;;;;;;5057054;28;20040;-80
2022/12/30 09:09:49;;;;;;;15.65;3.33;;;;;;;;;;5048709;28;20028;-82
2022/12/30 09:12:16;;;;;;;17.77;3.28;;;;;;;;;;5045220;28;20036;-82
2022/12/30 09:14:42;;;;;;;24.05;3.85;;;;;;;;;;5061084;28;20029;-82
2022/12/30 09:17:08;;;;;;;20.33;3.13;;;;;;;;;;5061272;28;20067;-80
2022/12/30 09:19:34;;;;;;;18.30;3.65;;;;;;;;;;5061811;28;20040;-81
2022/12/30 09:22:00;;;;;;;17.65;3.78;;;;;;;;;;5061676;28;20040;-81
2022/12/30 09:24:26;;;;;;;14.07;2.75;;;;;;;;;;5061152;28;20037;-79
2022/12/30 09:26:52;;;;;;;15.73;3.03;;;;;;;;;;5061609;28;20032;-83
2022/12/30 09:29:18;;;;;;;18.75;3.10;;;;;;;;;;5060111;28;20044;-82
2022/12/30 09:31:44;;;;;;;14.68;3.53;;;;;;;;;;5063283;28;20029;-82
2022/12/30 09:34:11;;;;;;;11.70;4.20;;;;;;;;;;5060119;28;20031;-81
2022/12/30 09:36:37;;;;;;;32.90;5.75;;;;;;;;;;5068198;28;20019;-81
2022/12/30 09:39:04;;;;;;;13.07;2.63;;;;;;;;;;5073549;28;20036;-85
2022/12/30 09:44:37;;;;;;;19.77;3.38;;;;;;;;;;5053393;28;20036;-82
2022/12/30 09:47:06;;;;;;;18.65;2.83;;;;;;;;;;5071900;28;20051;-83
2022/12/30 09:49:50;;;;;;;15.57;3.10;;;;;;;;;;5072161;28;20070;-84
2022/12/30 09:52:16;;;;;;;16.00;2.80;;;;;;;;;;5043044;28;20116;-84
2022/12/30 09:54:44;;;;;;;11.38;3.05;;;;;;;;;;5072996;28;20539;-86
2022/12/30 09:57:30;;;;;;;14.52;2.92;;;;;;;;;;5068413;28;20025;-84
2022/12/30 09:59:59;;;;;;;16.65;3.28;;;;;;;;;;5058588;28;20040;-87
2022/12/30 10:02:28;;;;;;;14.68;2.65;;;;;;;;;;5067066;28;20029;-84
2022/12/30 10:04:55;;;;;;;10.35;2.58;;;;;;;;;;5073155;28;20115;-86
2022/12/30 10:07:40;;;;;;;15.18;2.70;;;;;;;;;;5061134;28;20025;-86
2022/12/30 10:10:10;;;;;;;17.00;2.83;;;;;;;;;;5060011;28;20037;-81
2022/12/30 10:12:45;;;;;;;14.13;3.10;;;;;;;;;;5067381;28;20538;-84
2022/12/30 10:15:21;;;;;;;17.95;3.08;;;;;;;;;;5064058;28;20028;-83
2022/12/30 10:17:56;;;;;;;10.07;2.97;;;;;;;;;;5060797;28;20154;-82
2022/12/30 10:20:41;;;;;;;11.02;2.97;;;;;;;;;;5042296;28;20044;-79
2022/12/30 10:23:26;;;;;;;16.02;2.90;;;;;;;;;;5061645;28;20496;-81
2022/12/30 10:26:27;;;;;;;11.25;3.47;;;;;;;;;;5065615;28;20394;-80
2022/12/30 10:28:59;;;;;;;19.50;3.65;;;;;;;;;;4988577;28;20038;-80
2022/12/30 10:31:26;;;;;;;17.27;2.35;;;;;;;;;;5046708;28;20389;-78
2022/12/30 10:33:57;;;;;;;8.68;2.67;;;;;;;;;;5062590;28;20025;-80
2022/12/30 10:36:25;;;;;;;10.52;2.67;;;;;;;;;;5061265;28;20489;-80
2022/12/30 10:38:57;;;;;;;14.68;2.92;;;;;;;;;;5061384;28;20040;-81
2022/12/30 10:41:33;;;;;;;17.73;3.30;;;;;;;;;;5057673;28;20394;-78
2022/12/30 10:43:59;;;;;;;11.88;2.53;;;;;;;;;;5062395;28;20482;-81
2022/12/30 10:46:26;;;;;;;11.65;3.55;;;;;;;;;;5061321;28;20104;-79
2022/12/30 10:48:52;;;;;;;12.18;2.50;;;;;;;;;;5064124;28;20031;-82
2022/12/30 10:51:19;;;;;;;13.93;2.85;;;;;;;;;;5057111;28;20028;-81
2022/12/30 10:53:47;;;;;;;27.85;13.73;;;;;;;;;;5056470;28;20082;-84
2022/12/30 10:56:34;;;;;;;12.07;2.70;;;;;;;;;;5074424;28;20028;-80
2022/12/30 10:59:03;;;;;;;14.82;2.35;;;;;;;;;;5070060;28;20025;-81
2022/12/30 11:01:31;;;;;;;14.77;3.20;;;;;;;;;;5076632;28;20060;-82
2022/12/30 11:03:58;;;;;;;17.20;2.20;;;;;;;;;;5070447;28;20025;-83
2022/12/30 11:06:31;;;;;;;11.20;2.53;;;;;;;;;;5074718;28;20360;-83
2022/12/30 11:09:06;;;;;;;10.43;2.95;;;;;;;;;;5067976;28;20108;-82
2022/12/30 11:14:44;;;;;;;10.02;1.92;;;;;;;;;;5070791;28;20361;-79
2022/12/30 11:17:10;;;;;;;9.43;2.10;;;;;;;;;;5071574;28;20040;-81
2022/12/30 11:19:36;;;;;;;7.65;1.83;;;;;;;;;;5070522;28;20021;-80
2022/12/30 11:22:03;;;;;;;10.07;2.40;;;;;;;;;;5066505;28;20060;-79
2022/12/30 11:24:30;;;;;;;11.90;2.90;;;;;;;;;;5071981;28;20032;-79
2022/12/30 11:26:56;;;;;;;9.23;2.72;;;;;;;;;;5055621;28;20028;-80
2022/12/30 11:29:23;;;;;;;8.82;1.80;;;;;;;;;;5071549;28;20052;-81
2022/12/30 11:31:51;;;;;;;19.77;2.65;;;;;;;;;;5067482;28;20032;-78
2022/12/30 11:34:19;;;;;;;6.00;1.85;;;;;;;;;;5062509;28;20031;-80
2022/12/30 11:36:46;;;;;;;10.05;2.08;;;;;;;;;;5085946;28;20033;-81
2022/12/30 11:39:32;;;;;;;9.23;2.53;;;;;;;;;;5077746;28;20082;-86
2022/12/30 11:42:00;;;;;;;12.23;2.53;;;;;;;;;;5069510;28;20049;-84
2022/12/30 11:44:33;;;;;;;7.03;1.70;;;;;;;;;;5062064;28;20054;-79
2022/12/30 11:46:59;;;;;;;;;;;;;;;;;;5069513;28;20032;-82
2022/12/30 11:49:36;;;;;;;11.48;2.20;;;;;;;;;;5053270;28;19909;-80
2022/12/30 11:52:13;;;;;;;9.43;2.50;;;;;;;;;;5056585;28;20038;-82
2022/12/30 11:55:05;;;;;;;13.95;2.53;;;;;;;;;;5065555;28;20044;-80
2022/12/30 11:57:31;;;;;;;8.50;3.00;;;;;;;;;;5059603;28;20500;-82
2022/12/30 12:00:02;;;;;;;6.20;1.38;;;;;;;;;;5044441;28;20782;-79
2022/12/30 12:02:32;;;;;;;5.78;1.55;;;;;;;;;;5059901;28;20149;-82
2022/12/30 12:04:58;;;;;;;10.70;2.05;;;;;;;;;;5066756;28;20381;-82
2022/12/30 12:07:27;;;;;;;8.80;2.15;;;;;;;;;;5067536;28;20036;-80
2022/12/30 12:09:57;;;;;;;7.68;2.08;;;;;;;;;;5069814;28;20139;-81
2022/12/30 12:12:25;;;;;;;5.05;1.30;;;;;;;;;;5066709;28;20407;-80
2022/12/30 12:15:02;;;;;;;6.00;1.20;;;;;;;;;;5068356;28;20162;-81
2022/12/30 12:17:34;;;;;;;7.38;1.58;;;;;;;;;;5040266;28;20033;-80
2022/12/30 12:20:05;;;;;;;7.93;1.55;;;;;;;;;;5064676;28;20024;-80
2022/12/30 12:22:43;;;;;;;8.68;1.50;;;;;;;;;;5067987;28;20040;-81
2022/12/30 12:25:15;;;;;;;8.15;1.50;;;;;;;;;;5067548;28;20025;-82
2022/12/30 12:27:42;;;;;;;7.25;1.63;;;;;;;;;;5065740;28;20075;-82
2022/12/30 12:30:12;;;;;;;5.40;1.20;;;;;;;;;;5072088;28;20024;-82
2022/12/30 12:32:56;;;;;;;4.85;1.38;;;;;;;;;;5063176;28;20036;-81
2022/12/30 12:35:35;;;;;;;7.18;1.60;;;;;;;;;;5058799;28;20145;-83
2022/12/30 12:38:19;;;;;;;6.97;1.60;;;;;;;;;;5062491;28;20099;-82
2022/12/30 12:40:48;;;;;;;5.70;1.77;;;;;;;;;;5053013;28;20063;-82
2022/12/30 12:43:32;;;;;;;4.80;1.00;;;;;;;;;;5071223;28;20390;-81
2022/12/30 12:45:58;;;;;;;9.90;1.73;;;;;;;;;;5061970;28;20063;-81
2022/12/30 12:48:24;;;;;;;6.18;1.95;;;;;;;;;;5064124;28;20028;-81
2022/12/30 12:51:00;;;;;;;7.35;1.73;;;;;;;;;;5052861;28;20040;-81
2022/12/30 12:53:29;;;;;;;7.82;2.03;;;;;;;;;;5069126;28;20024;-82
2022/12/30 12:55:58;;;;;;;9.60;1.70;;;;;;;;;;5071837;28;20086;-82
2022/12/30 12:58:39;;;;;;;8.15;2.40;;;;;;;;;;5069790;28;20021;-81
2022/12/30 13:01:15;;;;;;;11.00;1.92;;;;;;;;;;5064232;28;20040;-80
2022/12/30 13:04:00;;;;;;;10.55;2.10;;;;;;;;;;5051522;28;20032;-82
2022/12/30 13:06:31;;;;;;;10.13;1.70;;;;;;;;;;5052042;28;20482;-83
2022/12/30 13:09:07;;;;;;;8.13;2.47;;;;;;;;;;5059595;28;20059;-82
2022/12/30 13:11:54;;;;;;;11.55;3.13;;;;;;;;;;5074421;28;20414;-82
2022/12/30 13:14:28;;;;;;;12.40;2.70;;;;;;;;;;5040082;28;20045;-81
2022/12/30 13:16:55;;;;;;;11.52;3.83;;;;;;;;;;5049379;28;20029;-81
2022/12/30 13:19:23;;;;;;;13.07;4.28;;;;;;;;;;5035441;28;20116;-80
2022/12/30 13:21:51;;;;;;;6.40;1.48;;;;;;;;;;5051826;28;20064;-80
2022/12/30 13:24:22;;;;;;;7.93;1.27;;;;;;;;;;5049004;28;20120;-81
2022/12/30 13:26:50;;;;;;;8.88;1.67;;;;;;;;;;5051206;28;20456;-80
2022/12/30 13:29:16;;;;;;;4.65;1.27;;;;;;;;;;5036784;28;20033;-80
2022/12/30 13:31:46;;;;;;;8.85;1.60;;;;;;;;;;5036081;28;20460;-80
2022/12/30 13:34:21;;;;;;;6.53;1.33;;;;;;;;;;5039826;28;20029;-80
2022/12/30 13:37:06;;;;;;;11.07;1.92;;;;;;;;;;5047858;28;20359;-79
2022/12/30 13:39:52;;;;;;;5.68;1.38;;;;;;;;;;5032460;28;20065;-80
2022/12/30 13:42:27;;;;;;;7.10;1.50;;;;;;;;;;5049007;28;20032;-78
2022/12/30 13:44:54;;;;;;;8.70;2.35;;;;;;;;;;5051027;28;20414;-78
2022/12/30 13:47:23;;;;;;;9.82;2.40;;;;;;;;;;5056131;28;20052;-80
2022/12/30 13:49:49;;;;;;;9.63;2.10;;;;;;;;;;5040721;28;20029;-80
2022/12/30 13:52:20;;;;;;;8.63;1.73;;;;;;;;;;5047427;28;20045;-80
2022/12/30 13:54:50;;;;;;;13.40;2.38;;;;;;;;;;5031135;28;20034;-80
2022/12/30 13:57:27;;;;;;;5.53;1.20;;;;;;;;;;5040975;28;20111;-80
2022/12/30 14:00:07;;;;;;;7.70;1.85;;;;;;;;;;5043454;28;20047;-79
2022/12/30 14:02:35;;;;;;;7.35;1.15;;;;;;;;;;5031025;28;20065;-80
2022/12/30 14:05:02;;;;;;;6.78;0.93;;;;;;;;;;5046041;28;20485;-81
2022/12/30 14:07:43;;;;;;;6.55;1.42;;;;;;;;;;5050166;28;20032;-81
2022/12/30 14:10:15;;;;;;;7.35;1.13;;;;;;;;;;5049678;28;20036;-80
2022/12/30 14:12:41;;;;;;;7.55;1.17;;;;;;;;;;5048845;28;20029;-80
2022/12/30 14:15:34;;;;;;;6.88;1.52;;;;;;;;;;5059788;28;20558;-80
2022/12/30 14:18:01;;;;;;;6.47;1.98;;;;;;;;;;5029202;28;20072;-81
2022/12/30 14:20:28;;;;;;;7.65;1.45;;;;;;;;;;5050471;28;20025;-80
2022/12/30 14:22:59;;;;;;;8.85;1.20;;;;;;;;;;5035243;28;20021;-79
2022/12/30 14:25:36;;;;;;;4.50;1.40;;;;;;;;;;5066283;28;20055;-79
2022/12/30 14:28:11;;;;;;;3.53;0.90;;;;;;;;;;5066633;28;20131;-81
2022/12/30 14:30:47;;;;;;;5.38;0.93;;;;;;;;;;5053510;28;20033;-82
2022/12/30 14:33:23;;;;;;;5.38;1.05;;;;;;;;;;5066137;28;20021;-81
2022/12/30 14:35:50;;;;;;;4.65;1.13;;;;;;;;;;5060398;28;20032;-83
2022/12/30 14:38:27;;;;;;;6.22;1.55;;;;;;;;;;5062216;28;20031;-83
2022/12/30 14:41:01;;;;;;;4.43;0.82;;;;;;;;;;5062405;28;20111;-84
2022/12/30 14:43:28;;;;;;;4.88;0.90;;;;;;;;;;5060688;28;20036;-83
2022/12/30 14:46:13;;;;;;;3.80;0.77;;;;;;;;;;5062983;28;20055;-83
2022/12/30 14:48:58;;;;;;;6.07;2.97;;;;;;;;;;5060277;28;20373;-87
2022/12/30 14:51:25;;;;;;;25.25;8.18;;;;;;;;;;5067811;28;20025;-87
2022/12/30 14:53:51;;;;;;;6.72;1.20;;;;;;;;;;5069569;28;20036;-83
2022/12/30 14:56:17;;;;;;;4.95;1.00;;;;;;;;;;5069186;28;20029;-85
2022/12/30 14:58:43;;;;;;;5.65;1.52;;;;;;;;;;5070256;28;20441;-83
2022/12/30 15:01:13;;;;;;;7.30;2.00;;;;;;;;;;5074636;28;20052;-86
2022/12/30 15:03:39;;;;;;;8.82;1.15;;;;;;;;;;5063278;28;20489;-85
2022/12/30 15:06:05;;;;;;;4.40;1.15;;;;;;;;;;5077643;28;20022;-81
2022/12/30 15:08:41;;;;;;;4.80;1.35;;;;;;;;;;5079947;28;20043;-81
2022/12/30 15:11:19;;;;;;;5.95;1.27;;;;;;;;;;5088725;28;20111;-81
2022/12/30 15:13:46;;;;;;;11.88;1.40;;;;;;;;;;5071803;28;20049;-81
2022/12/30 15:16:15;;;;;;;5.40;1.30;;;;;;;;;;5064878;28;20407;-80
2022/12/30 15:18:42;;;;;;;6.63;1.73;;;;;;;;;;5051648;28;20346;-80
2022/12/30 15:21:26;;;;;;;6.70;1.10;;;;;;;;;;5054957;28;20131;-82
2022/12/30 15:23:59;;;;;;;8.18;1.02;;;;;;;;;;5063677;28;20031;-79
2022/12/30 15:26:25;;;;;;;9.65;2.92;;;;;;;;;;5065459;28;20032;-81
2022/12/30 15:28:52;;;;;;;5.60;1.45;;;;;;;;;;5067753;28;20029;-81
2022/12/30 15:31:19;;;;;;;8.43;1.60;;;;;;;;;;5063008;28;20104;-81
2022/12/30 15:33:53;;;;;;;8.65;1.10;;;;;;;;;;5073427;28;20070;-80
2022/12/30 15:36:19;;;;;;;5.97;1.67;;;;;;;;;;5070949;28;20386;-81
2022/12/30 15:38:45;;;;;;;4.55;1.13;;;;;;;;;;5066070;28;20465;-81
2022/12/30 15:41:14;;;;;;;5.68;1.23;;;;;;;;;;5059865;28;20472;-81
2022/12/30 15:43:40;;;;;;;4.30;1.08;;;;;;;;;;5068548;28;20033;-80